createdAt,value
2023-02-25T00:02:03.167Z,98313.53
2023-02-25T00:04:32.958Z,98322.78
2023-02-25T00:07:22.976Z,98314.21
2023-02-25T00:09:54.256Z,98316.15
2023-02-25T00:12:24.145Z,98310.92
2023-02-25T00:14:52.174Z,98301.55
2023-02-25T00:17:20.760Z,98312.55
2023-02-25T00:19:50.277Z,98289.29
2023-02-25T00:22:21.415Z,98298.44
2023-02-25T00:24:53.676Z,98286.44
2023-02-25T00:27:22.470Z,98298.56
2023-02-25T00:29:54.434Z,98291.27
2023-02-25T00:32:23.496Z,98278.23
2023-02-25T00:34:52.131Z,98290.52
2023-02-25T00:37:20.362Z,98279.71
2023-02-25T00:39:48.661Z,98281.48
2023-02-25T00:42:17.769Z,98274.95
2023-02-25T00:44:47.233Z,98271.48
2023-02-25T00:47:17.251Z,98265.34
2023-02-25T00:49:47.812Z,98276.77
2023-02-25T00:52:16.042Z,98258.74
2023-02-25T00:54:44.020Z,98253.27
2023-02-25T00:57:12.642Z,98250.17
2023-02-25T00:59:41.326Z,98250.58
2023-02-25T01:02:10.217Z,98256.62
2023-02-25T01:04:38.742Z,98244.39
2023-02-25T01:07:08.620Z,98249.80
2023-02-25T01:09:37.096Z,98249.84
2023-02-25T01:12:05.364Z,98257.47
2023-02-25T01:14:33.883Z,98247.14
2023-02-25T01:17:03.146Z,98240.98
2023-02-25T01:19:34.051Z,98238.02
2023-02-25T01:22:02.556Z,98232.90
2023-02-25T01:24:33.263Z,98236.00
2023-02-25T01:27:02.830Z,98232.98
2023-02-25T01:29:35.572Z,98224.67
2023-02-25T01:32:04.280Z,98222.61
2023-02-25T01:34:33.312Z,98227.69
2023-02-25T01:37:06.225Z,98210.71
2023-02-25T01:39:37.734Z,98218.68
2023-02-25T01:42:13.179Z,98209.97
2023-02-25T01:45:12.344Z,98209.64
2023-02-25T01:47:40.636Z,98208.66
2023-02-25T01:50:10.248Z,98206.84
2023-02-25T01:52:38.818Z,98194.34
2023-02-25T01:55:09.692Z,98180.17
2023-02-25T01:57:38.939Z,98187.00
2023-02-25T02:00:12.608Z,98177.20
2023-02-25T02:02:44.904Z,98184.64
2023-02-25T02:05:13.414Z,98180.58
2023-02-25T02:07:43.836Z,98179.97
2023-02-25T02:10:12.627Z,98178.60
2023-02-25T02:12:43.162Z,98181.46
2023-02-25T02:15:13.871Z,98179.77
2023-02-25T02:17:56.997Z,98178.35
2023-02-25T02:20:44.239Z,98170.65
2023-02-25T02:23:41.008Z,98168.57
2023-02-25T02:26:37.968Z,98174.15
2023-02-25T02:29:28.228Z,98167.37
2023-02-25T02:32:15.893Z,98165.14
2023-02-25T02:35:05.220Z,98164.23
2023-02-25T02:37:44.806Z,98166.34
2023-02-25T02:40:19.715Z,98159.52
2023-02-25T02:42:51.440Z,98165.00
2023-02-25T02:45:27.072Z,98156.25
2023-02-25T02:47:59.287Z,98154.56
2023-02-25T02:50:40.241Z,98131.92
2023-02-25T02:53:16.442Z,98132.48
2023-02-25T02:55:47.494Z,98126.67
2023-02-25T02:58:23.312Z,98124.75
2023-02-25T03:00:55.865Z,98128.31
2023-02-25T03:03:36.474Z,98126.85
2023-02-25T03:06:17.482Z,98121.08
2023-02-25T03:08:59.606Z,98122.56
2023-02-25T03:11:27.883Z,98118.80
2023-02-25T03:13:59.789Z,98115.72
2023-02-25T03:16:53.526Z,98113.53
2023-02-25T03:19:30.173Z,98113.57
2023-02-25T03:22:01.437Z,98121.31
2023-02-25T03:25:02.761Z,98112.28
2023-02-25T03:27:39.871Z,98116.38
2023-02-25T03:30:13.155Z,98113.09
2023-02-25T03:32:47.873Z,98109.30
2023-02-25T03:35:19.426Z,98105.95
2023-02-25T03:37:50.411Z,98102.61
2023-02-25T03:40:19.887Z,98105.95
2023-02-25T03:42:54.256Z,98109.83
2023-02-25T03:45:22.452Z,98109.33
2023-02-25T03:47:50.637Z,98110.53
2023-02-25T03:50:28.816Z,98100.02
2023-02-25T03:53:19.621Z,98097.48
2023-02-25T03:55:52.350Z,98101.61
2023-02-25T03:58:21.389Z,98096.51
2023-02-25T04:00:58.932Z,98091.08
2023-02-25T04:03:27.830Z,98094.16
2023-02-25T04:05:56.217Z,98092.15
2023-02-25T04:08:24.712Z,98079.59
2023-02-25T04:10:52.866Z,98079.86
2023-02-25T04:13:26.001Z,98085.27
2023-02-25T04:15:54.428Z,98079.39
2023-02-25T04:18:27.836Z,98075.33
2023-02-25T04:20:56.668Z,98075.08
2023-02-25T04:23:24.928Z,98070.63
2023-02-25T04:25:53.570Z,98075.65
2023-02-25T04:28:23.308Z,98056.14
2023-02-25T04:30:51.531Z,98061.44
2023-02-25T04:33:20.114Z,98054.61
2023-02-25T04:35:49.723Z,98044.80
2023-02-25T04:38:18.004Z,98045.36
2023-02-25T04:40:47.435Z,98039.11
2023-02-25T04:43:17.404Z,98039.33
2023-02-25T04:45:47.050Z,98041.38
2023-02-25T04:48:16.087Z,98034.65
2023-02-25T04:50:44.584Z,98034.25
2023-02-25T04:53:14.063Z,98031.98
2023-02-25T04:55:42.539Z,98029.38
2023-02-25T04:58:10.645Z,98028.37
2023-02-25T05:00:40.643Z,98022.85
2023-02-25T05:03:09.122Z,98033.73
2023-02-25T05:05:37.877Z,98036.31
2023-02-25T05:08:09.107Z,98038.63
2023-02-25T05:10:38.016Z,98041.16
2023-02-25T05:13:06.218Z,98043.10
2023-02-25T05:15:37.186Z,98045.53
2023-02-25T05:18:06.525Z,98038.63
2023-02-25T05:20:34.972Z,98041.48
2023-02-25T05:23:03.826Z,98043.55
2023-02-25T05:25:33.861Z,98040.45
2023-02-25T05:28:02.817Z,98040.20
2023-02-25T05:30:31.397Z,98042.59
2023-02-25T05:33:02.500Z,98040.95
2023-02-25T05:35:32.653Z,98033.84
2023-02-25T05:38:01.086Z,98043.80
2023-02-25T05:40:29.269Z,98053.09
2023-02-25T05:42:57.428Z,98054.85
2023-02-25T05:45:25.765Z,98057.02
2023-02-25T05:47:55.805Z,98059.67
2023-02-25T05:50:24.317Z,98061.50
2023-02-25T05:52:52.937Z,98031.66
2023-02-25T05:55:21.556Z,98038.47
2023-02-25T05:57:49.859Z,98028.23
2023-02-25T06:00:21.573Z,98028.19
2023-02-25T06:02:50.524Z,98031.02
2023-02-25T06:05:19.030Z,98022.92
2023-02-25T06:07:48.869Z,98021.84
2023-02-25T06:10:18.210Z,98023.19
2023-02-25T06:12:46.658Z,98026.56
2023-02-25T06:15:15.823Z,98015.11
2023-02-25T06:17:44.084Z,98005.09
2023-02-25T06:20:16.611Z,97992.73
2023-02-25T06:22:44.975Z,97990.71
2023-02-25T06:25:13.121Z,97979.14
2023-02-25T06:27:41.500Z,97974.52
2023-02-25T06:30:12.260Z,97985.71
2023-02-25T06:32:40.967Z,97983.13
2023-02-25T06:35:09.871Z,97986.48
2023-02-25T06:37:40.061Z,97971.93
2023-02-25T06:40:09.706Z,97970.24
2023-02-25T06:42:38.716Z,97965.03
2023-02-25T06:45:09.493Z,97966.86
2023-02-25T06:47:38.292Z,97956.55
2023-02-25T06:50:07.473Z,97950.48
2023-02-25T06:52:35.688Z,97951.73
2023-02-25T06:55:07.058Z,97951.83
2023-02-25T06:57:35.499Z,97945.75
2023-02-25T07:00:05.820Z,97940.85
2023-02-25T07:02:35.669Z,97942.02
2023-02-25T07:05:06.232Z,97949.42
2023-02-25T07:07:35.440Z,97949.50
2023-02-25T07:10:04.165Z,97949.85
2023-02-25T07:12:38.444Z,97936.60
2023-02-25T07:15:07.986Z,97937.82
2023-02-25T07:17:37.696Z,97933.52
2023-02-25T07:20:09.439Z,97922.38
2023-02-25T07:22:38.545Z,97921.27
2023-02-25T07:25:08.750Z,97910.63
2023-02-25T07:27:43.599Z,97899.39
2023-02-25T07:30:18.417Z,97917.22
2023-02-25T07:32:47.876Z,97910.58
2023-02-25T07:35:23.097Z,97895.66
2023-02-25T07:37:52.745Z,97904.77
2023-02-25T07:40:22.796Z,97912.50
2023-02-25T07:42:51.663Z,97906.16
2023-02-25T07:45:25.124Z,97906.04
2023-02-25T07:47:56.319Z,97896.38
2023-02-25T07:50:29.153Z,97897.94
2023-02-25T07:52:57.328Z,97897.09
2023-02-25T07:55:26.235Z,97907.08
2023-02-25T07:57:56.131Z,97887.27
2023-02-25T08:00:24.299Z,97884.39
2023-02-25T08:02:53.620Z,97887.20
2023-02-25T08:05:24.882Z,97890.31
2023-02-25T08:07:56.626Z,97887.66
2023-02-25T08:10:25.040Z,97886.20
2023-02-25T08:12:59.200Z,97889.41
2023-02-25T08:17:03.054Z,97881.20
2023-02-25T08:19:31.997Z,97887.82
2023-02-25T08:22:00.635Z,97881.11
2023-02-25T08:24:29.849Z,97861.34
2023-02-25T08:26:58.333Z,97875.44
2023-02-25T08:29:26.233Z,97884.39
2023-02-25T08:31:54.350Z,97856.45
2023-02-25T08:34:22.559Z,97864.41
2023-02-25T08:36:50.484Z,97867.09
2023-02-25T08:39:18.537Z,97864.59
2023-02-25T08:41:47.673Z,97854.52
2023-02-25T08:44:15.664Z,97844.10
2023-02-25T08:46:43.862Z,97847.73
2023-02-25T08:49:12.055Z,97836.43
2023-02-25T08:51:40.857Z,97844.52
2023-02-25T08:54:12.427Z,97836.84
2023-02-25T08:56:44.583Z,97832.69
2023-02-25T08:59:15.148Z,97802.39
2023-02-25T09:01:46.245Z,97805.95
2023-02-25T09:04:19.846Z,97799.84
2023-02-25T09:06:49.152Z,97795.55
2023-02-25T09:09:17.915Z,97801.23
2023-02-25T09:11:46.152Z,97783.20
2023-02-25T09:14:16.649Z,97787.26
2023-02-25T09:16:44.699Z,97796.02
2023-02-25T09:19:15.673Z,97772.73
2023-02-25T09:21:50.459Z,97772.85
2023-02-25T09:24:19.788Z,97770.24
2023-02-25T09:26:48.294Z,97760.69
2023-02-25T09:29:17.356Z,97755.81
2023-02-25T09:31:46.043Z,97752.98
2023-02-25T09:34:15.851Z,97742.30
2023-02-25T09:36:44.570Z,97744.58
2023-02-25T09:39:13.418Z,97732.27
2023-02-25T09:42:01.478Z,97737.70
2023-02-25T09:44:36.710Z,97728.82
2023-02-25T09:47:19.667Z,97713.56
2023-02-25T09:49:56.580Z,97698.29
2023-02-25T09:52:32.095Z,97710.27
2023-02-25T09:55:16.686Z,97696.36
2023-02-25T09:58:20.128Z,97693.27
2023-02-25T10:00:55.592Z,97684.88
2023-02-25T10:03:57.228Z,97677.02
2023-02-25T10:06:39.216Z,97672.61
2023-02-25T10:09:17.803Z,97670.17
2023-02-25T10:11:54.269Z,97664.02
2023-02-25T10:14:32.110Z,97652.57
2023-02-25T10:17:18.438Z,97644.94
2023-02-25T10:20:05.784Z,97643.66
2023-02-25T10:23:16.330Z,97648.55
2023-02-25T10:25:52.918Z,97650.15
2023-02-25T10:28:21.709Z,97642.35
2023-02-25T10:31:04.043Z,97634.35
2023-02-25T10:33:37.962Z,97627.44
2023-02-25T10:36:16.554Z,97623.32
2023-02-25T10:38:47.101Z,97621.41
2023-02-25T10:41:15.875Z,97608.90
2023-02-25T10:43:45.456Z,97593.07
2023-02-25T10:46:17.721Z,97574.85
2023-02-25T10:49:00.736Z,97570.73
2023-02-25T10:51:30.434Z,97600.12
2023-02-25T10:53:58.492Z,97578.30
2023-02-25T10:56:31.321Z,97574.65
2023-02-25T10:59:19.992Z,97562.19
2023-02-25T11:01:50.784Z,97542.86
2023-02-25T11:04:23.727Z,97536.37
2023-02-25T11:06:53.302Z,97524.43
2023-02-25T11:09:21.298Z,97526.55
2023-02-25T11:11:56.364Z,97523.09
2023-02-25T11:14:28.753Z,97534.81
2023-02-25T11:17:16.254Z,97544.40
2023-02-25T11:19:58.447Z,97542.92
2023-02-25T11:22:40.052Z,97541.52
2023-02-25T11:25:15.808Z,97533.01
2023-02-25T11:27:45.175Z,97530.15
2023-02-25T11:30:25.874Z,97539.25
2023-02-25T11:32:55.249Z,97527.09
2023-02-25T11:35:30.032Z,97519.73
2023-02-25T11:37:59.185Z,97504.72
2023-02-25T11:40:34.009Z,97515.61
2023-02-25T11:43:33.559Z,97502.36
2023-02-25T11:46:17.709Z,97502.20
2023-02-25T11:48:51.142Z,97502.41
2023-02-25T11:51:28.417Z,97494.33
2023-02-25T11:54:03.100Z,97495.35
2023-02-25T11:56:34.633Z,97496.39
2023-02-25T11:59:16.890Z,97507.39
2023-02-25T12:02:03.505Z,97507.45
2023-02-25T12:05:00.605Z,97482.29
2023-02-25T12:07:35.790Z,97493.30
2023-02-25T12:10:41.575Z,97484.79
2023-02-25T12:13:24.935Z,97481.70
2023-02-25T12:16:29.986Z,97484.62
2023-02-25T12:19:29.355Z,97486.13
2023-02-25T12:22:34.623Z,97484.73
2023-02-25T12:25:05.542Z,97480.66
2023-02-25T12:28:08.448Z,97487.35
2023-02-25T12:31:01.675Z,97476.61
2023-02-25T12:33:57.777Z,97458.56
2023-02-25T12:36:34.103Z,97471.24
2023-02-25T12:39:06.141Z,97474.38
2023-02-25T12:41:58.779Z,97463.41
2023-02-25T12:44:27.765Z,97467.24
2023-02-25T12:47:05.101Z,97454.45
2023-02-25T12:50:16.345Z,97470.98
2023-02-25T12:53:03.553Z,97457.58
2023-02-25T12:56:00.351Z,97456.10
2023-02-25T12:58:56.452Z,97452.98
2023-02-25T13:01:41.725Z,97441.48
2023-02-25T13:04:31.623Z,97457.02
2023-02-25T13:07:14.831Z,97457.53
2023-02-25T13:09:50.999Z,97454.73
2023-02-25T13:12:28.529Z,97437.30
2023-02-25T13:15:12.852Z,97447.15
2023-02-25T13:18:07.209Z,97431.19
2023-02-25T13:21:17.210Z,97439.70
2023-02-25T13:24:11.139Z,97430.67
2023-02-25T13:26:55.155Z,97426.50
2023-02-25T13:29:55.345Z,97422.98
2023-02-25T13:32:29.190Z,97417.18
2023-02-25T13:35:09.867Z,97411.54
2023-02-25T13:37:49.971Z,97416.02
2023-02-25T13:40:40.171Z,97407.23
2023-02-25T13:43:34.169Z,97395.15
2023-02-25T13:46:05.474Z,97394.42
2023-02-25T13:48:39.291Z,97391.77
2023-02-25T13:51:42.234Z,97383.80
2023-02-25T13:54:22.761Z,97380.59
2023-02-25T13:57:05.706Z,97371.70
2023-02-25T13:59:44.030Z,97372.13
2023-02-25T14:02:41.841Z,97367.23
2023-02-25T14:05:31.482Z,97366.02
2023-02-25T14:08:32.840Z,97352.94
2023-02-25T14:11:19.867Z,97334.41
2023-02-25T14:14:06.431Z,97335.34
2023-02-25T14:16:42.866Z,97328.52
2023-02-25T14:19:42.301Z,97328.17
2023-02-25T14:22:36.187Z,97323.81
2023-02-25T14:25:28.649Z,97312.46
2023-02-25T14:28:22.904Z,97311.30
2023-02-25T14:31:10.367Z,97312.48
2023-02-25T14:34:11.969Z,97306.73
2023-02-25T14:36:47.465Z,97303.94
2023-02-25T14:39:41.309Z,97300.56
2023-02-25T14:42:21.947Z,97293.27
2023-02-25T14:45:05.682Z,97289.86
2023-02-25T14:47:48.056Z,97302.41
2023-02-25T14:50:52.316Z,97282.66
2023-02-25T14:53:58.456Z,97268.82
2023-02-25T14:56:46.330Z,97262.57
2023-02-25T14:59:52.136Z,97250.61
2023-02-25T15:02:35.488Z,97237.79
2023-02-25T15:05:12.925Z,97231.61
2023-02-25T15:08:02.695Z,97223.77
2023-02-25T15:10:41.709Z,97220.21
2023-02-25T15:13:29.499Z,97222.43
2023-02-25T15:16:20.920Z,97222.66
2023-02-25T15:18:55.467Z,97223.16
2023-02-25T15:21:32.421Z,97228.23
2023-02-25T15:24:01.127Z,97227.78
2023-02-25T15:26:41.403Z,97225.38
2023-02-25T15:29:28.281Z,97216.63
2023-02-25T15:32:25.058Z,97212.27
2023-02-25T15:34:56.358Z,97202.58
2023-02-25T15:37:31.735Z,97200.96
2023-02-25T15:40:16.141Z,97205.48
2023-02-25T15:42:46.525Z,97198.88
2023-02-25T15:45:27.317Z,97190.16
2023-02-25T15:48:08.087Z,97211.02
2023-02-25T15:50:42.385Z,97206.45
2023-02-25T15:53:23.579Z,97224.98
2023-02-25T15:56:07.393Z,97248.96
2023-02-25T15:58:56.465Z,97287.22
2023-02-25T16:01:29.639Z,97339.67
2023-02-25T16:03:58.237Z,97371.29
2023-02-25T16:06:33.375Z,97394.41
2023-02-25T16:09:18.027Z,97406.69
2023-02-25T16:11:53.714Z,97416.20
2023-02-25T16:14:37.754Z,97425.73
2023-02-25T16:17:11.717Z,97425.45
2023-02-25T16:19:43.477Z,97428.96
2023-02-25T16:22:16.414Z,97428.45
2023-02-25T16:24:50.241Z,97427.45
2023-02-25T16:27:35.108Z,97428.80
2023-02-25T16:30:12.311Z,97428.29
2023-02-25T16:33:20.693Z,97422.13
2023-02-25T16:35:59.943Z,97411.09
2023-02-25T16:38:56.325Z,97413.74
2023-02-25T16:41:33.326Z,97423.95
2023-02-25T16:44:07.100Z,97433.68
2023-02-25T16:46:37.528Z,97439.68
2023-02-25T16:49:11.337Z,97440.52
2023-02-25T16:51:39.892Z,97426.19
2023-02-25T16:54:15.440Z,97413.43
2023-02-25T16:56:46.491Z,97420.27
2023-02-25T16:59:14.613Z,97425.66
2023-02-25T17:01:50.481Z,97419.66
2023-02-25T17:04:24.817Z,97436.69
2023-02-25T17:07:07.630Z,97466.38
2023-02-25T17:09:36.382Z,97509.85
2023-02-25T17:12:07.068Z,97526.84
2023-02-25T17:14:35.595Z,97551.56
2023-02-25T17:17:03.944Z,97556.69
2023-02-25T17:19:36.689Z,97561.09
2023-02-25T17:22:05.410Z,97575.55
2023-02-25T17:24:33.666Z,97564.70
2023-02-25T17:27:03.155Z,97569.50
2023-02-25T17:29:35.470Z,97574.13
2023-02-25T17:32:25.252Z,97573.82
2023-02-25T17:34:59.858Z,97563.73
2023-02-25T17:37:29.432Z,97567.31
2023-02-25T17:39:57.571Z,97584.38
2023-02-25T17:42:33.097Z,97581.91
2023-02-25T17:45:02.138Z,97592.36
2023-02-25T17:47:33.933Z,97595.27
2023-02-25T17:50:25.695Z,97604.49
2023-02-25T17:52:58.479Z,97590.43
2023-02-25T17:55:28.729Z,97594.88
2023-02-25T17:57:58.607Z,97588.66
2023-02-25T18:00:29.643Z,97589.78
2023-02-25T18:03:17.987Z,97579.76
2023-02-25T18:05:53.654Z,97582.64
2023-02-25T18:08:24.260Z,97589.06
2023-02-25T18:11:02.396Z,97589.47
2023-02-25T18:13:36.228Z,97598.52
2023-02-25T18:16:32.292Z,97622.52
2023-02-25T18:19:24.987Z,97652.48
2023-02-25T18:21:53.428Z,97645.50
2023-02-25T18:24:35.917Z,97653.78
2023-02-25T18:27:07.570Z,97636.27
2023-02-25T18:29:35.520Z,97652.36
2023-02-25T18:32:05.280Z,97672.20
2023-02-25T18:34:37.177Z,97683.83
2023-02-25T18:37:14.861Z,97695.70
2023-02-25T18:39:47.486Z,97707.27
2023-02-25T18:42:18.673Z,97701.11
2023-02-25T18:44:47.437Z,97692.00
2023-02-25T18:47:16.887Z,97695.34
2023-02-25T18:49:45.491Z,97693.89
2023-02-25T18:52:22.124Z,97692.48
2023-02-25T18:54:55.182Z,97696.13
2023-02-25T18:57:27.142Z,97697.73
2023-02-25T18:59:55.617Z,97694.15
2023-02-25T19:02:35.199Z,97699.50
2023-02-25T19:05:03.927Z,97704.19
2023-02-25T19:07:34.569Z,97708.71
2023-02-25T19:10:03.656Z,97715.42
2023-02-25T19:12:33.894Z,97715.56
2023-02-25T19:15:07.350Z,97718.16
2023-02-25T19:17:37.370Z,97726.73
2023-02-25T19:20:13.840Z,97736.63
2023-02-25T19:22:50.532Z,97729.45
2023-02-25T19:25:22.643Z,97745.12
2023-02-25T19:27:52.424Z,97746.36
2023-02-25T19:30:22.738Z,97760.67
2023-02-25T19:33:04.333Z,97756.31
2023-02-25T19:35:38.971Z,97763.77
2023-02-25T19:38:20.147Z,97772.48
2023-02-25T19:40:51.234Z,97775.56
2023-02-25T19:43:19.414Z,97782.77
2023-02-25T19:45:47.979Z,97781.52
2023-02-25T19:48:16.971Z,97779.44
2023-02-25T19:50:45.384Z,97778.85
2023-02-25T19:53:14.543Z,97783.17
2023-02-25T19:55:43.951Z,97785.87
2023-02-25T19:58:12.255Z,97791.45
2023-02-25T20:00:46.408Z,97797.61
2023-02-25T20:03:15.399Z,97809.17
2023-02-25T20:05:45.000Z,97809.42
2023-02-25T20:08:13.806Z,97812.59
2023-02-25T20:13:28.174Z,97820.61
2023-02-25T20:16:01.392Z,97831.44
2023-02-25T20:18:30.300Z,97832.97
2023-02-25T20:21:01.464Z,97832.29
2023-02-25T20:23:30.274Z,97832.15
2023-02-25T20:26:10.592Z,97833.40
2023-02-25T20:28:40.400Z,97835.20
2023-02-25T20:31:12.123Z,97836.91
2023-02-25T20:34:54.768Z,97836.39
2023-02-25T20:37:24.786Z,97838.88
2023-02-25T20:39:54.341Z,97847.00
2023-02-25T20:42:24.678Z,97855.02
2023-02-25T20:44:53.333Z,97854.11
2023-02-25T20:47:27.266Z,97858.84
2023-02-25T20:49:56.141Z,97865.43
2023-02-25T20:52:29.990Z,97863.19
2023-02-25T20:55:02.834Z,97863.68
2023-02-25T20:57:33.454Z,97865.05
2023-02-25T21:00:03.029Z,97865.59
2023-02-25T21:02:31.953Z,97875.19
2023-02-25T21:05:03.091Z,97877.18
2023-02-25T21:07:31.963Z,97877.99
2023-02-25T21:10:00.394Z,97893.27
2023-02-25T21:12:29.290Z,97893.58
2023-02-25T21:14:57.404Z,97901.45
2023-02-25T21:17:26.258Z,97901.38
2023-02-25T21:19:54.351Z,97899.52
2023-02-25T21:22:26.254Z,97911.68
2023-02-25T21:24:54.923Z,97915.75
2023-02-25T21:27:24.203Z,97923.09
2023-02-25T21:29:53.919Z,97933.02
2023-02-25T21:32:22.738Z,97943.54
2023-02-25T21:34:51.341Z,97954.55
2023-02-25T21:37:19.886Z,97960.59
2023-02-25T21:39:48.358Z,97965.54
2023-02-25T21:42:22.891Z,97964.21
2023-02-25T21:44:52.308Z,97966.47
2023-02-25T21:47:25.927Z,97970.40
2023-02-25T21:49:56.109Z,97971.61
2023-02-25T21:52:26.212Z,97978.95
2023-02-25T21:54:56.745Z,97974.45
2023-02-25T21:57:27.764Z,97980.04
2023-02-25T22:00:00.321Z,97977.46
2023-02-25T22:02:30.482Z,97977.95
2023-02-25T22:05:01.078Z,97978.84
2023-02-25T22:07:30.735Z,97991.70
2023-02-25T22:09:59.205Z,97996.42
2023-02-25T22:12:27.694Z,98006.39
2023-02-25T22:15:00.799Z,98003.08
2023-02-25T22:17:29.639Z,98003.83
2023-02-25T22:19:58.639Z,98011.73
2023-02-25T22:22:26.819Z,98005.48
2023-02-25T22:24:56.031Z,98010.60
2023-02-25T22:27:24.280Z,98005.52
2023-02-25T22:29:52.352Z,98005.25
2023-02-25T22:32:21.399Z,98004.05
2023-02-25T22:34:51.556Z,98002.73
2023-02-25T22:37:19.755Z,98004.23
2023-02-25T22:39:48.478Z,98007.23
2023-02-25T22:42:16.742Z,98008.20
2023-02-25T22:44:44.836Z,98002.77
2023-02-25T22:47:13.158Z,98008.25
2023-02-25T22:49:41.620Z,98017.23
2023-02-25T22:52:09.551Z,98014.75
2023-02-25T22:54:37.857Z,98012.02
2023-02-25T22:57:06.218Z,98014.46
2023-02-25T22:59:34.184Z,98014.71
2023-02-25T23:02:03.154Z,98012.66
2023-02-25T23:04:33.833Z,98015.70
2023-02-25T23:07:02.331Z,98014.70
2023-02-25T23:09:30.736Z,98019.55
2023-02-25T23:12:02.987Z,98027.98
2023-02-25T23:14:31.252Z,98045.45
2023-02-25T23:16:59.791Z,98041.71
2023-02-25T23:19:31.469Z,98051.20
2023-02-25T23:21:59.850Z,98055.02
2023-02-25T23:24:27.981Z,98045.20
2023-02-25T23:27:01.234Z,98055.88
2023-02-25T23:29:29.570Z,98073.38
2023-02-25T23:31:58.280Z,98063.31
2023-02-25T23:34:26.484Z,98068.59
2023-02-25T23:36:55.923Z,98058.31
2023-02-25T23:39:25.755Z,98055.73
2023-02-25T23:41:53.876Z,98050.64
2023-02-25T23:44:23.472Z,98039.77
2023-02-25T23:46:55.215Z,98042.52
2023-02-25T23:49:23.558Z,98040.05
2023-02-25T23:51:52.663Z,98063.84
2023-02-25T23:54:21.766Z,98065.08
2023-02-25T23:56:51.434Z,98069.20
2023-02-25T23:59:22.695Z,98081.12
